Zim Panama — VSWW5 — position and weather

sailwx.info

Track history (hours):
 
Tides and Currents Weather Stations Pressure Air Temp Water Temp Dewpoint Dewpoint Depression Visibility Wind Speed Wind Dir Waves Ship Positions

Zim Panama

Last reported at 2015-Sep-01 00:07 UTC. Time now 2015-Sep-04 07:55 UTC.
Position N 39°15' W 009°51'.

Length 294.12 m; beam 32.2 m; draft 9.45 m.

Type: Ship (hazmat cat C). MMSI: 235474000.

Date/timePositionNaut miles runAvg speedWind from/ knotsBaromVisibWave heightAir tempDewpointWater temp
2015-Sep-01 00:07N 39°15' W 009°51'610.7
2015-Aug-31 23:33N 39°09' W 009°51'1010.4
2015-Aug-31 22:33N 38°59' W 009°52'1010.4
2015-Aug-31 21:33N 38°48' W 009°52'1110.5
2015-Aug-31 20:33N 38°38' W 009°50'1010.2
2015-Aug-31 19:33N 38°28' W 009°47'1110.9
2015-Aug-31 18:33N 38°17' W 009°44'1211.8
2015-Aug-31 17:33N 38°06' W 009°41'1311.7
2015-Aug-31 16:26N 37°53' W 009°37'1415.7
2015-Aug-31 15:33N 37°39' W 009°33'1613.5
2015-Aug-31 14:21N 37°24' W 009°28'67 9.8
2015-Aug-31 07:31N 36°35' W 008°31'5611.4
2015-Aug-31 02:33N 36°17' W 007°25'1111.0
2015-Aug-31 01:31N 36°13' W 007°11'1111.3
2015-Aug-31 00:33N 36°10' W 006°58'32510.2
2015-Aug-29 16:32N 37°41' W 000°28'1211.9
2015-Aug-29 15:33N 37°50' W 000°20'1412.0
2015-Aug-29 14:25N 38°02' W 000°11'84 9.3
2015-Aug-29 05:23N 39°26' W 000°19'1 0.6
2015-Aug-29 04:21N 39°26' W 000°19'0 0.0
2015-Aug-29 02:30N 39°26' W 000°19'0 0.0
2015-Aug-29 00:30N 39°26' W 000°19'0 0.0
2015-Aug-28 23:21N 39°26' W 000°19'0 0.0
2015-Aug-28 22:09N 39°26' W 000°19'0 0.0
2015-Aug-28 21:33N 39°26' W 000°19'0 0.0
2015-Aug-28 20:33N 39°26' W 000°19'0 0.0
2015-Aug-28 19:33N 39°26' W 000°19'0 0.0
2015-Aug-28 18:33N 39°26' W 000°19'0 0.0
2015-Aug-28 15:30N 39°26' W 000°19'0 0.0
2015-Aug-28 14:33N 39°26' W 000°19'0 0.0
2015-Aug-28 13:33N 39°26' W 000°19'0 0.0
2015-Aug-28 10:27N 39°26' W 000°19'0 0.1
2015-Aug-28 08:32N 39°26' W 000°19'10411.5
2015-Aug-27 23:33N 39°12' E 001°53'1812.3
2015-Aug-27 22:05N 39°05' E 002°15'712.7
2015-Aug-27 21:33N 39°03' E 002°23'1312.7
2015-Aug-27 20:33N 38°59' E 002°39'1312.6
2015-Aug-27 19:33N 38°56' E 002°54'1312.5
2015-Aug-27 18:31N 38°53' E 003°10'1314.0
2015-Aug-27 17:33N 38°50' E 003°27'1414.1
2015-Aug-27 16:33N 38°47' E 003°45'1514.4
2015-Aug-27 15:30N 38°43' E 004°04'1614.4
2015-Aug-27 14:21N 38°40' E 004°25'2614.4
2015-Aug-27 12:33N 38°34' E 004°57'11914.5
2015-Aug-27 04:22N 38°07' E 007°25'8614.5
2015-Aug-26 22:26N 37°48' E 009°11'1214.0
2015-Aug-26 21:33N 37°45' E 009°26'1414.1
2015-Aug-26 20:32N 37°42' E 009°44'4113.8
2015-Aug-26 17:33N 37°35' E 010°36'3113.5
2015-Aug-26 15:17N 37°27' E 011°13'3914.1
2015-Aug-26 12:34N 37°08' E 011°55'5014.6
2015-Aug-26 09:07N 36°46' E 012°52'814.8
2015-Aug-26 08:34N 36°43' E 013°01'1814.9
2015-Aug-26 07:22N 36°35' E 013°21'1215.0
2015-Aug-26 06:33N 36°30' E 013°34'1515.5
2015-Aug-26 05:34N 36°23' E 013°51'1615.7
2015-Aug-26 04:34N 36°18' E 014°10'1616.0
2015-Aug-26 03:34N 36°13' E 014°29'3215.8
2015-Aug-26 01:33N 36°04' E 015°06'2315.7
2015-Aug-26 00:04N 35°57' E 015°34'815.5
2015-Aug-25 23:34N 35°55' E 015°43'1515.3
2015-Aug-25 22:33N 35°50' E 016°01'1615.4
2015-Aug-25 21:33N 35°46' E 016°20'1515.3
2015-Aug-25 20:33N 35°41' E 016°38'1715.5
2015-Aug-25 19:27N 35°36' E 016°58'  
Track history (hours):
 
Tides and Currents Weather Stations Pressure Air Temp Water Temp Dewpoint Dewpoint Depression Visibility Wind Speed Wind Dir Waves Ship Positions

Zim Panama

Last reported at 2015-Sep-01 00:07 UTC. Time now 2015-Sep-04 07:55 UTC.
Position N 39°15' W 009°51'.

Length 294.12 m; beam 32.2 m; draft 9.45 m.

Type: Ship (hazmat cat C). MMSI: 235474000.

Date/timePositionNaut miles runAvg speedWind from/ knotsBaromVisibWave heightAir tempDewpointWater temp
2015-Sep-01 00:07N 39°15' W 009°51'610.7
2015-Aug-31 23:33N 39°09' W 009°51'1010.4
2015-Aug-31 22:33N 38°59' W 009°52'1010.4
2015-Aug-31 21:33N 38°48' W 009°52'1110.5
2015-Aug-31 20:33N 38°38' W 009°50'1010.2
2015-Aug-31 19:33N 38°28' W 009°47'1110.9
2015-Aug-31 18:33N 38°17' W 009°44'1211.8
2015-Aug-31 17:33N 38°06' W 009°41'1311.7
2015-Aug-31 16:26N 37°53' W 009°37'1415.7
2015-Aug-31 15:33N 37°39' W 009°33'1613.5
2015-Aug-31 14:21N 37°24' W 009°28'67 9.8
2015-Aug-31 07:31N 36°35' W 008°31'5611.4
2015-Aug-31 02:33N 36°17' W 007°25'1111.0
2015-Aug-31 01:31N 36°13' W 007°11'1111.3
2015-Aug-31 00:33N 36°10' W 006°58'32510.2
2015-Aug-29 16:32N 37°41' W 000°28'1211.9
2015-Aug-29 15:33N 37°50' W 000°20'1412.0
2015-Aug-29 14:25N 38°02' W 000°11'84 9.3
2015-Aug-29 05:23N 39°26' W 000°19'1 0.6
2015-Aug-29 04:21N 39°26' W 000°19'0 0.0
2015-Aug-29 02:30N 39°26' W 000°19'0 0.0
2015-Aug-29 00:30N 39°26' W 000°19'0 0.0
2015-Aug-28 23:21N 39°26' W 000°19'0 0.0
2015-Aug-28 22:09N 39°26' W 000°19'0 0.0
2015-Aug-28 21:33N 39°26' W 000°19'0 0.0
2015-Aug-28 20:33N 39°26' W 000°19'0 0.0
2015-Aug-28 19:33N 39°26' W 000°19'0 0.0
2015-Aug-28 18:33N 39°26' W 000°19'0 0.0
2015-Aug-28 15:30N 39°26' W 000°19'0 0.0
2015-Aug-28 14:33N 39°26' W 000°19'0 0.0
2015-Aug-28 13:33N 39°26' W 000°19'0 0.0
2015-Aug-28 10:27N 39°26' W 000°19'0 0.1
2015-Aug-28 08:32N 39°26' W 000°19'10411.5
2015-Aug-27 23:33N 39°12' E 001°53'1812.3
2015-Aug-27 22:05N 39°05' E 002°15'712.7
2015-Aug-27 21:33N 39°03' E 002°23'1312.7
2015-Aug-27 20:33N 38°59' E 002°39'1312.6
2015-Aug-27 19:33N 38°56' E 002°54'1312.5
2015-Aug-27 18:31N 38°53' E 003°10'1314.0
2015-Aug-27 17:33N 38°50' E 003°27'1414.1
2015-Aug-27 16:33N 38°47' E 003°45'1514.4
2015-Aug-27 15:30N 38°43' E 004°04'1614.4
2015-Aug-27 14:21N 38°40' E 004°25'2614.4
2015-Aug-27 12:33N 38°34' E 004°57'11914.5
2015-Aug-27 04:22N 38°07' E 007°25'8614.5
2015-Aug-26 22:26N 37°48' E 009°11'1214.0
2015-Aug-26 21:33N 37°45' E 009°26'1414.1
2015-Aug-26 20:32N 37°42' E 009°44'4113.8
2015-Aug-26 17:33N 37°35' E 010°36'3113.5
2015-Aug-26 15:17N 37°27' E 011°13'3914.1
2015-Aug-26 12:34N 37°08' E 011°55'5014.6
2015-Aug-26 09:07N 36°46' E 012°52'814.8
2015-Aug-26 08:34N 36°43' E 013°01'1814.9
2015-Aug-26 07:22N 36°35' E 013°21'1215.0
2015-Aug-26 06:33N 36°30' E 013°34'1515.5
2015-Aug-26 05:34N 36°23' E 013°51'1615.7
2015-Aug-26 04:34N 36°18' E 014°10'1616.0
2015-Aug-26 03:34N 36°13' E 014°29'3215.8
2015-Aug-26 01:33N 36°04' E 015°06'2315.7
2015-Aug-26 00:04N 35°57' E 015°34'815.5
2015-Aug-25 23:34N 35°55' E 015°43'1515.3
2015-Aug-25 22:33N 35°50' E 016°01'1615.4
2015-Aug-25 21:33N 35°46' E 016°20'1515.3
2015-Aug-25 20:33N 35°41' E 016°38'1715.5
2015-Aug-25 19:27N 35°36' E 016°58'  

Dump ship's entire track history